sensor_id;sensor_type;location;lat;lon;timestamp;P1;durP1;ratioP1;P2;durP2;ratioP2
48268;SDS011;34088;52.232;5.196;2024-01-11T00:01:09;30.63;;;14.73;;
48268;SDS011;34088;52.232;5.196;2024-01-11T00:03:35;27.08;;;13.77;;
48268;SDS011;34088;52.232;5.196;2024-01-11T00:06:00;30.10;;;13.93;;
48268;SDS011;34088;52.232;5.196;2024-01-11T00:08:26;27.80;;;14.70;;
48268;SDS011;34088;52.232;5.196;2024-01-11T00:10:51;31.98;;;15.05;;
48268;SDS011;34088;52.232;5.196;2024-01-11T00:13:16;29.63;;;13.70;;
48268;SDS011;34088;52.232;5.196;2024-01-11T00:15:42;28.93;;;13.83;;
48268;SDS011;34088;52.232;5.196;2024-01-11T00:18:07;27.50;;;13.67;;
48268;SDS011;34088;52.232;5.196;2024-01-11T00:32:58;27.57;;;12.70;;
48268;SDS011;34088;52.232;5.196;2024-01-11T00:37:49;34.78;;;14.70;;
48268;SDS011;34088;52.232;5.196;2024-01-11T00:42:39;32.20;;;15.23;;
48268;SDS011;34088;52.232;5.196;2024-01-11T00:45:04;29.13;;;13.70;;
48268;SDS011;34088;52.232;5.196;2024-01-11T00:49:55;36.70;;;15.90;;
48268;SDS011;34088;52.232;5.196;2024-01-11T00:52:21;35.15;;;16.40;;
48268;SDS011;34088;52.232;5.196;2024-01-11T00:54:46;32.03;;;15.93;;
48268;SDS011;34088;52.232;5.196;2024-01-11T00:59:37;31.30;;;15.05;;
48268;SDS011;34088;52.232;5.196;2024-01-11T01:02:02;36.53;;;16.03;;
48268;SDS011;34088;52.232;5.196;2024-01-11T01:04:27;33.88;;;15.43;;
48268;SDS011;34088;52.232;5.196;2024-01-11T01:06:53;34.63;;;16.87;;
48268;SDS011;34088;52.232;5.196;2024-01-11T01:09:18;33.03;;;16.37;;
48268;SDS011;34088;52.232;5.196;2024-01-11T01:11:43;34.38;;;16.65;;
48268;SDS011;34088;52.232;5.196;2024-01-11T01:16:34;34.43;;;16.53;;
48268;SDS011;34088;52.232;5.196;2024-01-11T01:18:59;35.90;;;16.50;;
48268;SDS011;34088;52.232;5.196;2024-01-11T01:23:50;33.73;;;16.90;;
48268;SDS011;34088;52.232;5.196;2024-01-11T01:26:15;40.20;;;18.23;;
48268;SDS011;34088;52.232;5.196;2024-01-11T01:28:40;34.43;;;17.73;;
48268;SDS011;34088;52.232;5.196;2024-01-11T01:31:06;34.78;;;16.60;;
48268;SDS011;34088;52.232;5.196;2024-01-11T01:33:31;39.57;;;18.03;;
48268;SDS011;34088;52.232;5.196;2024-01-11T01:35:57;37.60;;;18.15;;
48268;SDS011;34088;52.232;5.196;2024-01-11T01:38:23;38.83;;;17.98;;
48268;SDS011;34088;52.232;5.196;2024-01-11T01:40:48;34.35;;;16.80;;
48268;SDS011;34088;52.232;5.196;2024-01-11T01:43:13;40.78;;;19.30;;
48268;SDS011;34088;52.232;5.196;2024-01-11T01:45:39;36.08;;;18.25;;
48268;SDS011;34088;52.232;5.196;2024-01-11T01:48:04;37.03;;;18.37;;
48268;SDS011;34088;52.232;5.196;2024-01-11T01:50:30;36.13;;;18.63;;
48268;SDS011;34088;52.232;5.196;2024-01-11T01:52:56;38.25;;;18.75;;
48268;SDS011;34088;52.232;5.196;2024-01-11T01:57:48;37.28;;;18.52;;
48268;SDS011;34088;52.232;5.196;2024-01-11T02:00:16;37.88;;;17.88;;
48268;SDS011;34088;52.232;5.196;2024-01-11T02:02:45;36.03;;;18.42;;
48268;SDS011;34088;52.232;5.196;2024-01-11T02:05:14;39.03;;;18.45;;
48268;SDS011;34088;52.232;5.196;2024-01-11T02:07:42;35.17;;;16.75;;
48268;SDS011;34088;52.232;5.196;2024-01-11T02:10:09;36.60;;;18.58;;
48268;SDS011;34088;52.232;5.196;2024-01-11T02:12:35;37.85;;;18.65;;
48268;SDS011;34088;52.232;5.196;2024-01-11T02:15:02;38.97;;;18.27;;
48268;SDS011;34088;52.232;5.196;2024-01-11T02:19:53;38.50;;;19.63;;
48268;SDS011;34088;52.232;5.196;2024-01-11T02:24:47;38.95;;;19.17;;
48268;SDS011;34088;52.232;5.196;2024-01-11T02:29:37;39.83;;;19.02;;
48268;SDS011;34088;52.232;5.196;2024-01-11T02:32:03;43.13;;;21.33;;
48268;SDS011;34088;52.232;5.196;2024-01-11T02:34:30;44.33;;;20.42;;
48268;SDS011;34088;52.232;5.196;2024-01-11T02:36:55;43.20;;;20.77;;
48268;SDS011;34088;52.232;5.196;2024-01-11T02:39:21;46.05;;;22.33;;
48268;SDS011;34088;52.232;5.196;2024-01-11T02:41:48;44.78;;;21.92;;
48268;SDS011;34088;52.232;5.196;2024-01-11T02:44:15;46.15;;;22.70;;
48268;SDS011;34088;52.232;5.196;2024-01-11T02:46:41;43.53;;;21.75;;
48268;SDS011;34088;52.232;5.196;2024-01-11T02:51:31;42.50;;;20.70;;
48268;SDS011;34088;52.232;5.196;2024-01-11T02:53:56;44.63;;;22.27;;
48268;SDS011;34088;52.232;5.196;2024-01-11T02:58:48;47.20;;;22.40;;
48268;SDS011;34088;52.232;5.196;2024-01-11T03:01:14;45.00;;;22.95;;
48268;SDS011;34088;52.232;5.196;2024-01-11T03:03:39;45.20;;;22.27;;
48268;SDS011;34088;52.232;5.196;2024-01-11T03:06:04;44.85;;;22.40;;
48268;SDS011;34088;52.232;5.196;2024-01-11T03:08:29;49.33;;;23.52;;
48268;SDS011;34088;52.232;5.196;2024-01-11T03:10:55;50.28;;;23.75;;
48268;SDS011;34088;52.232;5.196;2024-01-11T03:13:20;48.47;;;24.55;;
48268;SDS011;34088;52.232;5.196;2024-01-11T03:15:45;46.15;;;23.58;;
48268;SDS011;34088;52.232;5.196;2024-01-11T03:20:36;49.80;;;23.90;;
48268;SDS011;34088;52.232;5.196;2024-01-11T03:23:01;53.13;;;25.05;;
48268;SDS011;34088;52.232;5.196;2024-01-11T03:25:27;48.85;;;24.25;;
48268;SDS011;34088;52.232;5.196;2024-01-11T03:27:54;51.45;;;25.77;;
48268;SDS011;34088;52.232;5.196;2024-01-11T03:30:19;53.27;;;26.60;;
48268;SDS011;34088;52.232;5.196;2024-01-11T03:32:44;52.07;;;24.70;;
48268;SDS011;34088;52.232;5.196;2024-01-11T03:37:35;53.97;;;26.70;;
48268;SDS011;34088;52.232;5.196;2024-01-11T03:42:27;53.13;;;25.87;;
48268;SDS011;34088;52.232;5.196;2024-01-11T03:44:53;57.33;;;26.90;;
48268;SDS011;34088;52.232;5.196;2024-01-11T03:47:18;54.23;;;26.63;;
48268;SDS011;34088;52.232;5.196;2024-01-11T03:49:43;53.92;;;27.15;;
48268;SDS011;34088;52.232;5.196;2024-01-11T03:54:34;61.38;;;28.00;;
48268;SDS011;34088;52.232;5.196;2024-01-11T03:56:59;58.63;;;28.17;;
48268;SDS011;34088;52.232;5.196;2024-01-11T04:01:51;58.60;;;27.90;;
48268;SDS011;34088;52.232;5.196;2024-01-11T04:04:17;62.13;;;30.38;;
48268;SDS011;34088;52.232;5.196;2024-01-11T04:06:43;62.83;;;30.33;;
48268;SDS011;34088;52.232;5.196;2024-01-11T04:09:08;58.83;;;29.43;;
48268;SDS011;34088;52.232;5.196;2024-01-11T04:11:33;58.50;;;29.50;;
48268;SDS011;34088;52.232;5.196;2024-01-11T04:13:58;64.37;;;31.13;;
48268;SDS011;34088;52.232;5.196;2024-01-11T04:16:24;60.22;;;26.40;;
48268;SDS011;34088;52.232;5.196;2024-01-11T04:21:24;63.03;;;30.53;;
48268;SDS011;34088;52.232;5.196;2024-01-11T04:23:53;67.22;;;31.77;;
48268;SDS011;34088;52.232;5.196;2024-01-11T04:26:18;71.30;;;33.38;;
48268;SDS011;34088;52.232;5.196;2024-01-11T04:31:10;66.60;;;30.60;;
48268;SDS011;34088;52.232;5.196;2024-01-11T04:33:35;72.15;;;33.15;;
48268;SDS011;34088;52.232;5.196;2024-01-11T04:38:26;67.80;;;30.93;;
48268;SDS011;34088;52.232;5.196;2024-01-11T04:40:51;66.83;;;31.17;;
48268;SDS011;34088;52.232;5.196;2024-01-11T04:45:41;64.73;;;31.83;;
48268;SDS011;34088;52.232;5.196;2024-01-11T04:48:07;70.07;;;33.50;;
48268;SDS011;34088;52.232;5.196;2024-01-11T04:50:32;68.25;;;32.95;;
48268;SDS011;34088;52.232;5.196;2024-01-11T04:55:22;70.53;;;33.33;;
48268;SDS011;34088;52.232;5.196;2024-01-11T04:57:48;67.20;;;33.47;;
48268;SDS011;34088;52.232;5.196;2024-01-11T05:00:13;70.35;;;33.67;;
48268;SDS011;34088;52.232;5.196;2024-01-11T05:02:39;68.18;;;33.38;;
48268;SDS011;34088;52.232;5.196;2024-01-11T05:05:04;71.93;;;34.25;;
48268;SDS011;34088;52.232;5.196;2024-01-11T05:07:29;74.35;;;35.50;;
48268;SDS011;34088;52.232;5.196;2024-01-11T05:12:20;68.38;;;32.83;;
48268;SDS011;34088;52.232;5.196;2024-01-11T05:17:11;69.23;;;32.97;;
48268;SDS011;34088;52.232;5.196;2024-01-11T05:19:36;72.60;;;33.37;;
48268;SDS011;34088;52.232;5.196;2024-01-11T05:22:01;73.83;;;35.23;;
48268;SDS011;34088;52.232;5.196;2024-01-11T05:24:27;70.57;;;34.42;;
48268;SDS011;34088;52.232;5.196;2024-01-11T05:26:52;77.30;;;36.50;;
48268;SDS011;34088;52.232;5.196;2024-01-11T05:29:17;73.68;;;35.63;;
48268;SDS011;34088;52.232;5.196;2024-01-11T05:31:43;78.73;;;35.67;;
48268;SDS011;34088;52.232;5.196;2024-01-11T05:36:37;74.25;;;34.47;;
48268;SDS011;34088;52.232;5.196;2024-01-11T05:39:02;69.43;;;35.03;;
48268;SDS011;34088;52.232;5.196;2024-01-11T05:41:27;75.15;;;35.17;;
48268;SDS011;34088;52.232;5.196;2024-01-11T05:43:53;75.60;;;35.00;;
48268;SDS011;34088;52.232;5.196;2024-01-11T05:46:19;70.35;;;34.78;;
48268;SDS011;34088;52.232;5.196;2024-01-11T05:48:44;72.30;;;35.90;;
48268;SDS011;34088;52.232;5.196;2024-01-11T05:53:35;72.40;;;34.50;;
48268;SDS011;34088;52.232;5.196;2024-01-11T05:56:01;74.70;;;35.42;;
48268;SDS011;34088;52.232;5.196;2024-01-11T05:58:26;73.45;;;35.63;;
48268;SDS011;34088;52.232;5.196;2024-01-11T06:00:51;73.40;;;36.07;;
48268;SDS011;34088;52.232;5.196;2024-01-11T06:03:17;76.13;;;37.77;;
48268;SDS011;34088;52.232;5.196;2024-01-11T06:05:42;70.80;;;35.38;;
48268;SDS011;34088;52.232;5.196;2024-01-11T06:08:07;78.88;;;37.35;;
48268;SDS011;34088;52.232;5.196;2024-01-11T06:10:33;76.30;;;37.70;;
48268;SDS011;34088;52.232;5.196;2024-01-11T06:12:58;79.05;;;37.22;;
48268;SDS011;34088;52.232;5.196;2024-01-11T06:15:23;71.80;;;35.45;;
48268;SDS011;34088;52.232;5.196;2024-01-11T06:20:14;76.10;;;35.33;;
48268;SDS011;34088;52.232;5.196;2024-01-11T06:22:39;75.00;;;35.72;;
48268;SDS011;34088;52.232;5.196;2024-01-11T06:25:05;76.47;;;36.50;;
48268;SDS011;34088;52.232;5.196;2024-01-11T06:29:55;77.17;;;35.03;;
48268;SDS011;34088;52.232;5.196;2024-01-11T06:32:21;79.25;;;38.15;;
48268;SDS011;34088;52.232;5.196;2024-01-11T06:34:46;85.05;;;40.40;;
48268;SDS011;34088;52.232;5.196;2024-01-11T06:37:12;75.35;;;36.42;;
48268;SDS011;34088;52.232;5.196;2024-01-11T06:42:03;75.93;;;34.90;;
48268;SDS011;34088;52.232;5.196;2024-01-11T06:44:28;76.57;;;35.42;;
48268;SDS011;34088;52.232;5.196;2024-01-11T06:46:54;77.37;;;35.83;;
48268;SDS011;34088;52.232;5.196;2024-01-11T06:49:19;77.53;;;37.28;;
48268;SDS011;34088;52.232;5.196;2024-01-11T06:51:45;81.45;;;37.03;;
48268;SDS011;34088;52.232;5.196;2024-01-11T06:54:10;77.43;;;37.22;;
48268;SDS011;34088;52.232;5.196;2024-01-11T06:59:01;73.68;;;35.28;;
48268;SDS011;34088;52.232;5.196;2024-01-11T07:01:26;77.68;;;36.92;;
48268;SDS011;34088;52.232;5.196;2024-01-11T07:03:51;80.57;;;37.35;;
48268;SDS011;34088;52.232;5.196;2024-01-11T07:06:17;76.47;;;36.78;;
48268;SDS011;34088;52.232;5.196;2024-01-11T07:08:42;76.68;;;36.90;;
48268;SDS011;34088;52.232;5.196;2024-01-11T07:11:07;76.87;;;36.47;;
48268;SDS011;34088;52.232;5.196;2024-01-11T07:13:33;84.80;;;37.90;;
48268;SDS011;34088;52.232;5.196;2024-01-11T07:18:24;76.07;;;36.15;;
48268;SDS011;34088;52.232;5.196;2024-01-11T07:20:50;75.05;;;37.00;;
48268;SDS011;34088;52.232;5.196;2024-01-11T07:25:42;77.73;;;35.77;;
48268;SDS011;34088;52.232;5.196;2024-01-11T07:28:07;81.50;;;38.97;;
48268;SDS011;34088;52.232;5.196;2024-01-11T07:32:58;80.15;;;36.80;;
48268;SDS011;34088;52.232;5.196;2024-01-11T07:35:24;79.27;;;38.13;;
48268;SDS011;34088;52.232;5.196;2024-01-11T07:37:49;83.05;;;38.67;;
48268;SDS011;34088;52.232;5.196;2024-01-11T07:40:15;83.85;;;39.83;;
48268;SDS011;34088;52.232;5.196;2024-01-11T07:42:41;76.63;;;37.63;;
48268;SDS011;34088;52.232;5.196;2024-01-11T07:45:07;80.15;;;38.15;;
48268;SDS011;34088;52.232;5.196;2024-01-11T07:47:35;76.20;;;37.08;;
48268;SDS011;34088;52.232;5.196;2024-01-11T07:50:01;74.45;;;37.15;;
48268;SDS011;34088;52.232;5.196;2024-01-11T07:52:28;78.28;;;38.35;;
48268;SDS011;34088;52.232;5.196;2024-01-11T07:54:53;79.68;;;38.33;;
48268;SDS011;34088;52.232;5.196;2024-01-11T07:59:44;81.18;;;37.50;;
48268;SDS011;34088;52.232;5.196;2024-01-11T08:02:09;77.97;;;36.47;;
48268;SDS011;34088;52.232;5.196;2024-01-11T08:04:35;80.63;;;38.50;;
48268;SDS011;34088;52.232;5.196;2024-01-11T08:07:02;79.00;;;37.78;;
48268;SDS011;34088;52.232;5.196;2024-01-11T08:09:27;84.82;;;38.97;;
48268;SDS011;34088;52.232;5.196;2024-01-11T08:11:53;82.32;;;38.55;;
48268;SDS011;34088;52.232;5.196;2024-01-11T08:14:19;81.75;;;39.22;;
48268;SDS011;34088;52.232;5.196;2024-01-11T08:16:45;83.13;;;39.90;;
48268;SDS011;34088;52.232;5.196;2024-01-11T08:19:11;81.45;;;38.25;;
48268;SDS011;34088;52.232;5.196;2024-01-11T08:21:38;80.38;;;39.22;;
48268;SDS011;34088;52.232;5.196;2024-01-11T08:24:04;86.05;;;39.95;;
48268;SDS011;34088;52.232;5.196;2024-01-11T08:28:55;80.10;;;36.28;;
48268;SDS011;34088;52.232;5.196;2024-01-11T08:33:46;78.00;;;37.95;;
48268;SDS011;34088;52.232;5.196;2024-01-11T08:38:37;78.68;;;37.97;;
48268;SDS011;34088;52.232;5.196;2024-01-11T08:43:28;74.22;;;34.95;;
48268;SDS011;34088;52.232;5.196;2024-01-11T08:45:54;79.43;;;38.92;;
48268;SDS011;34088;52.232;5.196;2024-01-11T08:48:19;76.20;;;36.83;;
48268;SDS011;34088;52.232;5.196;2024-01-11T08:50:44;74.03;;;36.65;;
48268;SDS011;34088;52.232;5.196;2024-01-11T08:55:35;77.47;;;36.80;;
48268;SDS011;34088;52.232;5.196;2024-01-11T09:00:26;63.27;;;28.00;;
48268;SDS011;34088;52.232;5.196;2024-01-11T09:02:52;62.72;;;28.13;;
48268;SDS011;34088;52.232;5.196;2024-01-11T09:07:42;63.07;;;29.53;;
48268;SDS011;34088;52.232;5.196;2024-01-11T09:10:08;62.95;;;29.55;;
48268;SDS011;34088;52.232;5.196;2024-01-11T09:14:59;65.47;;;29.70;;
48268;SDS011;34088;52.232;5.196;2024-01-11T09:17:24;63.92;;;30.63;;
48268;SDS011;34088;52.232;5.196;2024-01-11T09:19:50;67.87;;;32.67;;
48268;SDS011;34088;52.232;5.196;2024-01-11T09:22:15;67.35;;;32.40;;
48268;SDS011;34088;52.232;5.196;2024-01-11T09:24:41;65.97;;;31.23;;
48268;SDS011;34088;52.232;5.196;2024-01-11T09:27:06;60.13;;;28.23;;
48268;SDS011;34088;52.232;5.196;2024-01-11T09:31:58;60.00;;;27.23;;
48268;SDS011;34088;52.232;5.196;2024-01-11T09:34:24;53.35;;;22.90;;
48268;SDS011;34088;52.232;5.196;2024-01-11T09:36:49;67.00;;;30.13;;
48268;SDS011;34088;52.232;5.196;2024-01-11T09:39:15;67.28;;;28.15;;
48268;SDS011;34088;52.232;5.196;2024-01-11T09:41:41;61.53;;;29.40;;
48268;SDS011;34088;52.232;5.196;2024-01-11T09:44:13;63.25;;;28.23;;
48268;SDS011;34088;52.232;5.196;2024-01-11T09:46:39;58.58;;;27.85;;
48268;SDS011;34088;52.232;5.196;2024-01-11T09:49:04;60.75;;;28.75;;
48268;SDS011;34088;52.232;5.196;2024-01-11T09:53:59;61.45;;;29.02;;
48268;SDS011;34088;52.232;5.196;2024-01-11T09:56:25;62.38;;;29.50;;
48268;SDS011;34088;52.232;5.196;2024-01-11T09:58:52;65.53;;;31.10;;
48268;SDS011;34088;52.232;5.196;2024-01-11T10:01:18;64.07;;;31.52;;
48268;SDS011;34088;52.232;5.196;2024-01-11T10:03:44;65.28;;;31.05;;
48268;SDS011;34088;52.232;5.196;2024-01-11T10:06:11;62.92;;;31.27;;
48268;SDS011;34088;52.232;5.196;2024-01-11T10:11:02;77.13;;;37.05;;
48268;SDS011;34088;52.232;5.196;2024-01-11T10:13:28;67.97;;;33.78;;
48268;SDS011;34088;52.232;5.196;2024-01-11T10:18:38;81.35;;;38.17;;
48268;SDS011;34088;52.232;5.196;2024-01-11T10:23:32;77.45;;;37.80;;
48268;SDS011;34088;52.232;5.196;2024-01-11T10:25:59;76.28;;;39.28;;
48268;SDS011;34088;52.232;5.196;2024-01-11T10:28:25;70.90;;;33.78;;
48268;SDS011;34088;52.232;5.196;2024-01-11T10:30:51;71.60;;;37.13;;
48268;SDS011;34088;52.232;5.196;2024-01-11T10:33:20;69.00;;;35.38;;
48268;SDS011;34088;52.232;5.196;2024-01-11T10:40:39;67.20;;;33.85;;
48268;SDS011;34088;52.232;5.196;2024-01-11T10:43:06;70.60;;;36.60;;
48268;SDS011;34088;52.232;5.196;2024-01-11T10:45:36;66.43;;;34.10;;
48268;SDS011;34088;52.232;5.196;2024-01-11T10:48:05;72.57;;;39.90;;
48268;SDS011;34088;52.232;5.196;2024-01-11T10:50:35;71.13;;;37.40;;
48268;SDS011;34088;52.232;5.196;2024-01-11T10:53:15;64.03;;;32.47;;
48268;SDS011;34088;52.232;5.196;2024-01-11T10:55:52;61.77;;;32.73;;
48268;SDS011;34088;52.232;5.196;2024-01-11T11:00:44;62.05;;;31.48;;
48268;SDS011;34088;52.232;5.196;2024-01-11T11:03:10;59.60;;;30.30;;
48268;SDS011;34088;52.232;5.196;2024-01-11T11:05:37;61.05;;;29.60;;
48268;SDS011;34088;52.232;5.196;2024-01-11T11:08:04;57.20;;;28.83;;
48268;SDS011;34088;52.232;5.196;2024-01-11T11:10:33;58.38;;;28.42;;
48268;SDS011;34088;52.232;5.196;2024-01-11T11:12:59;60.25;;;29.42;;
48268;SDS011;34088;52.232;5.196;2024-01-11T11:15:28;61.47;;;30.52;;
48268;SDS011;34088;52.232;5.196;2024-01-11T11:17:54;61.47;;;29.42;;
48268;SDS011;34088;52.232;5.196;2024-01-11T11:20:20;58.10;;;29.60;;
48268;SDS011;34088;52.232;5.196;2024-01-11T11:22:48;55.67;;;29.42;;
48268;SDS011;34088;52.232;5.196;2024-01-11T11:25:29;59.83;;;30.85;;
48268;SDS011;34088;52.232;5.196;2024-01-11T11:27:55;57.80;;;29.27;;
48268;SDS011;34088;52.232;5.196;2024-01-11T11:30:21;63.17;;;29.95;;
48268;SDS011;34088;52.232;5.196;2024-01-11T11:32:46;72.55;;;36.17;;
48268;SDS011;34088;52.232;5.196;2024-01-11T11:35:11;60.47;;;31.80;;
48268;SDS011;34088;52.232;5.196;2024-01-11T11:37:37;51.60;;;28.80;;
48268;SDS011;34088;52.232;5.196;2024-01-11T11:40:10;56.15;;;28.77;;
48268;SDS011;34088;52.232;5.196;2024-01-11T11:42:35;67.10;;;31.92;;
48268;SDS011;34088;52.232;5.196;2024-01-11T11:47:34;52.10;;;27.45;;
48268;SDS011;34088;52.232;5.196;2024-01-11T11:52:39;73.63;;;45.08;;
48268;SDS011;34088;52.232;5.196;2024-01-11T11:55:07;59.45;;;32.80;;
48268;SDS011;34088;52.232;5.196;2024-01-11T11:57:33;53.80;;;28.35;;
48268;SDS011;34088;52.232;5.196;2024-01-11T11:59:59;52.28;;;28.25;;
48268;SDS011;34088;52.232;5.196;2024-01-11T12:02:27;59.28;;;30.23;;
48268;SDS011;34088;52.232;5.196;2024-01-11T12:04:53;54.28;;;29.60;;
48268;SDS011;34088;52.232;5.196;2024-01-11T12:07:20;52.17;;;28.50;;
48268;SDS011;34088;52.232;5.196;2024-01-11T12:09:46;55.92;;;30.50;;
48268;SDS011;34088;52.232;5.196;2024-01-11T12:12:11;55.53;;;29.83;;
48268;SDS011;34088;52.232;5.196;2024-01-11T12:14:38;56.97;;;30.75;;
48268;SDS011;34088;52.232;5.196;2024-01-11T12:17:03;52.70;;;29.23;;
48268;SDS011;34088;52.232;5.196;2024-01-11T12:19:28;58.00;;;29.57;;
48268;SDS011;34088;52.232;5.196;2024-01-11T12:21:54;53.63;;;29.15;;
48268;SDS011;34088;52.232;5.196;2024-01-11T12:24:19;55.63;;;27.98;;
48268;SDS011;34088;52.232;5.196;2024-01-11T12:26:47;48.25;;;27.55;;
48268;SDS011;34088;52.232;5.196;2024-01-11T12:29:15;48.15;;;27.27;;
48268;SDS011;34088;52.232;5.196;2024-01-11T12:31:42;47.83;;;27.58;;
48268;SDS011;34088;52.232;5.196;2024-01-11T12:34:07;48.97;;;27.87;;
48268;SDS011;34088;52.232;5.196;2024-01-11T12:36:33;52.78;;;29.88;;
48268;SDS011;34088;52.232;5.196;2024-01-11T12:38:58;49.72;;;29.13;;
48268;SDS011;34088;52.232;5.196;2024-01-11T12:41:23;50.63;;;29.23;;
48268;SDS011;34088;52.232;5.196;2024-01-11T12:43:49;50.42;;;26.80;;
48268;SDS011;34088;52.232;5.196;2024-01-11T12:46:14;48.88;;;27.45;;
48268;SDS011;34088;52.232;5.196;2024-01-11T12:48:40;45.22;;;26.45;;
48268;SDS011;34088;52.232;5.196;2024-01-11T12:51:07;46.22;;;26.25;;
48268;SDS011;34088;52.232;5.196;2024-01-11T12:53:32;51.75;;;28.98;;
48268;SDS011;34088;52.232;5.196;2024-01-11T12:56:07;48.05;;;27.15;;
48268;SDS011;34088;52.232;5.196;2024-01-11T12:58:38;49.08;;;28.27;;
48268;SDS011;34088;52.232;5.196;2024-01-11T13:01:07;49.70;;;26.35;;
48268;SDS011;34088;52.232;5.196;2024-01-11T13:03:37;48.30;;;27.83;;
48268;SDS011;34088;52.232;5.196;2024-01-11T13:06:04;52.53;;;28.98;;
48268;SDS011;34088;52.232;5.196;2024-01-11T13:08:32;58.67;;;32.63;;
48268;SDS011;34088;52.232;5.196;2024-01-11T13:11:01;55.70;;;31.50;;
48268;SDS011;34088;52.232;5.196;2024-01-11T13:13:30;56.47;;;31.60;;
48268;SDS011;34088;52.232;5.196;2024-01-11T13:15:55;51.17;;;28.67;;
48268;SDS011;34088;52.232;5.196;2024-01-11T13:18:21;47.42;;;27.08;;
48268;SDS011;34088;52.232;5.196;2024-01-11T13:20:46;50.50;;;28.83;;
48268;SDS011;34088;52.232;5.196;2024-01-11T13:25:40;47.05;;;26.95;;
48268;SDS011;34088;52.232;5.196;2024-01-11T13:28:06;48.08;;;26.95;;
48268;SDS011;34088;52.232;5.196;2024-01-11T13:30:31;44.85;;;26.48;;
48268;SDS011;34088;52.232;5.196;2024-01-11T13:32:57;43.78;;;25.92;;
48268;SDS011;34088;52.232;5.196;2024-01-11T13:35:23;51.85;;;28.20;;
48268;SDS011;34088;52.232;5.196;2024-01-11T13:37:48;49.30;;;27.37;;
48268;SDS011;34088;52.232;5.196;2024-01-11T13:40:13;48.83;;;26.70;;
48268;SDS011;34088;52.232;5.196;2024-01-11T13:42:39;44.53;;;25.38;;
48268;SDS011;34088;52.232;5.196;2024-01-11T13:45:05;44.38;;;25.67;;
48268;SDS011;34088;52.232;5.196;2024-01-11T13:47:33;46.42;;;27.17;;
48268;SDS011;34088;52.232;5.196;2024-01-11T13:49:59;44.58;;;25.85;;
48268;SDS011;34088;52.232;5.196;2024-01-11T13:52:24;47.83;;;27.17;;
48268;SDS011;34088;52.232;5.196;2024-01-11T13:54:50;45.37;;;26.37;;
48268;SDS011;34088;52.232;5.196;2024-01-11T13:57:15;45.03;;;24.67;;
48268;SDS011;34088;52.232;5.196;2024-01-11T13:59:40;44.40;;;25.60;;
48268;SDS011;34088;52.232;5.196;2024-01-11T14:02:05;47.27;;;26.77;;
48268;SDS011;34088;52.232;5.196;2024-01-11T14:04:31;49.37;;;26.93;;
48268;SDS011;34088;52.232;5.196;2024-01-11T14:06:56;43.20;;;25.23;;
48268;SDS011;34088;52.232;5.196;2024-01-11T14:09:22;42.92;;;24.77;;
48268;SDS011;34088;52.232;5.196;2024-01-11T14:11:47;43.83;;;26.00;;
48268;SDS011;34088;52.232;5.196;2024-01-11T14:14:13;51.63;;;28.75;;
48268;SDS011;34088;52.232;5.196;2024-01-11T14:16:39;50.50;;;27.02;;
48268;SDS011;34088;52.232;5.196;2024-01-11T14:19:04;60.87;;;31.30;;
48268;SDS011;34088;52.232;5.196;2024-01-11T14:21:29;49.27;;;28.07;;
48268;SDS011;34088;52.232;5.196;2024-01-11T14:23:55;42.38;;;25.33;;
48268;SDS011;34088;52.232;5.196;2024-01-11T14:26:20;46.93;;;30.63;;
48268;SDS011;34088;52.232;5.196;2024-01-11T14:28:45;39.80;;;25.30;;
48268;SDS011;34088;52.232;5.196;2024-01-11T14:31:10;40.43;;;24.07;;
48268;SDS011;34088;52.232;5.196;2024-01-11T14:33:36;44.05;;;23.80;;
48268;SDS011;34088;52.232;5.196;2024-01-11T14:36:01;40.00;;;22.75;;
48268;SDS011;34088;52.232;5.196;2024-01-11T14:38:27;40.60;;;24.83;;
48268;SDS011;34088;52.232;5.196;2024-01-11T14:40:52;41.10;;;24.23;;
48268;SDS011;34088;52.232;5.196;2024-01-11T14:43:17;42.40;;;24.57;;
48268;SDS011;34088;52.232;5.196;2024-01-11T14:45:43;41.17;;;24.37;;
48268;SDS011;34088;52.232;5.196;2024-01-11T14:48:08;41.17;;;24.00;;
48268;SDS011;34088;52.232;5.196;2024-01-11T14:50:33;46.17;;;25.90;;
48268;SDS011;34088;52.232;5.196;2024-01-11T14:52:59;43.90;;;24.93;;
48268;SDS011;34088;52.232;5.196;2024-01-11T14:55:24;41.03;;;24.33;;
48268;SDS011;34088;52.232;5.196;2024-01-11T14:57:49;40.67;;;23.75;;
48268;SDS011;34088;52.232;5.196;2024-01-11T15:00:15;39.97;;;24.53;;
48268;SDS011;34088;52.232;5.196;2024-01-11T15:02:41;40.90;;;24.42;;
48268;SDS011;34088;52.232;5.196;2024-01-11T15:05:06;44.83;;;25.80;;
48268;SDS011;34088;52.232;5.196;2024-01-11T15:07:32;42.50;;;26.25;;
48268;SDS011;34088;52.232;5.196;2024-01-11T15:09:57;45.23;;;26.50;;
48268;SDS011;34088;52.232;5.196;2024-01-11T15:12:23;49.47;;;27.42;;
48268;SDS011;34088;52.232;5.196;2024-01-11T15:14:48;47.60;;;27.43;;
48268;SDS011;34088;52.232;5.196;2024-01-11T15:17:20;46.97;;;26.85;;
48268;SDS011;34088;52.232;5.196;2024-01-11T15:19:45;51.15;;;29.58;;
48268;SDS011;34088;52.232;5.196;2024-01-11T15:22:12;52.58;;;29.65;;
48268;SDS011;34088;52.232;5.196;2024-01-11T15:27:04;55.63;;;31.20;;
48268;SDS011;34088;52.232;5.196;2024-01-11T15:29:30;60.20;;;31.60;;
48268;SDS011;34088;52.232;5.196;2024-01-11T15:31:55;56.97;;;33.07;;
48268;SDS011;34088;52.232;5.196;2024-01-11T15:34:20;59.67;;;33.88;;
48268;SDS011;34088;52.232;5.196;2024-01-11T15:36:46;59.28;;;33.53;;
48268;SDS011;34088;52.232;5.196;2024-01-11T15:39:12;64.28;;;36.50;;
48268;SDS011;34088;52.232;5.196;2024-01-11T15:41:37;64.80;;;34.33;;
48268;SDS011;34088;52.232;5.196;2024-01-11T15:44:03;59.42;;;35.38;;
48268;SDS011;34088;52.232;5.196;2024-01-11T15:46:28;62.10;;;34.97;;
48268;SDS011;34088;52.232;5.196;2024-01-11T15:48:54;58.10;;;34.03;;
48268;SDS011;34088;52.232;5.196;2024-01-11T15:51:19;62.38;;;34.08;;
48268;SDS011;34088;52.232;5.196;2024-01-11T15:53:44;62.27;;;34.43;;
48268;SDS011;34088;52.232;5.196;2024-01-11T15:56:10;63.92;;;36.47;;
48268;SDS011;34088;52.232;5.196;2024-01-11T15:58:35;67.40;;;38.22;;
48268;SDS011;34088;52.232;5.196;2024-01-11T16:01:00;67.37;;;39.40;;
48268;SDS011;34088;52.232;5.196;2024-01-11T16:03:25;57.00;;;33.73;;
48268;SDS011;34088;52.232;5.196;2024-01-11T16:05:51;60.30;;;34.15;;
48268;SDS011;34088;52.232;5.196;2024-01-11T16:08:16;55.30;;;32.40;;
48268;SDS011;34088;52.232;5.196;2024-01-11T16:10:41;56.27;;;33.50;;
48268;SDS011;34088;52.232;5.196;2024-01-11T16:13:07;57.00;;;30.85;;
48268;SDS011;34088;52.232;5.196;2024-01-11T16:15:32;60.75;;;35.50;;
48268;SDS011;34088;52.232;5.196;2024-01-11T16:17:58;55.55;;;33.28;;
48268;SDS011;34088;52.232;5.196;2024-01-11T16:20:23;56.77;;;33.90;;
48268;SDS011;34088;52.232;5.196;2024-01-11T16:22:48;54.07;;;29.60;;
48268;SDS011;34088;52.232;5.196;2024-01-11T16:25:13;55.43;;;32.27;;
48268;SDS011;34088;52.232;5.196;2024-01-11T16:27:39;58.27;;;34.30;;
48268;SDS011;34088;52.232;5.196;2024-01-11T16:30:05;57.58;;;34.28;;
48268;SDS011;34088;52.232;5.196;2024-01-11T16:32:31;60.35;;;35.65;;
48268;SDS011;34088;52.232;5.196;2024-01-11T16:37:22;57.95;;;33.25;;
48268;SDS011;34088;52.232;5.196;2024-01-11T16:39:48;57.63;;;32.77;;